OIMB  Birjand  Airport

Birjand, Iran

Add Bookmark
ICAO OIMB
Type Airport
Status Operational
Latitude
32° 53' 53" N
32.898102
Longitude
59° 15' 57" E
59.266102
Local (DST + 5) UTC (GMT + 4)
Feb 7, 2016 01:53 Feb 7, 2016 10:23
Sunrise-Sunset Local UTC
Begin Civil Twilight 05:56 02:26
Sunrise 06:22 02:52
Sunset 05:11 13:41
End Civil Twilight 05:37 14:07
VFR
VFR
MVFR
MVFR
IFR
IFR
LIFR
LIFR
Unknown
Unavailable

Current Weather

METAR Observed VFR
OIMB 071000Z 26006KT CAVOK 20/M21 Q1016 Sun, Feb 7, 2016 @ 10:00 UTC
(23 Minutes ago)
Visual Flight Rules
Wind Visibility Conditions
260° at 6 knots (11 kph) 10 km or more
  • No significant weather
Temperatures Readings Precipitation
Current Temp
20°C
68°F
Dewpoint
-21°C
-6°F
Humidity 5%
Altimeter 30" Hg
Sea Level Pressure 1,016 mb
Field Elevation
1,491 m
4,892 ft
None Recorded
-
-

CheckWX.com is intended as a tool to help pilots better visualize weather data. It is not intended as a substitute for an official weather briefing obtained from a Flight Service Station. CheckWX.com does not meet the FAA requirements for an official pre-flight weather briefing. Therefore, it's important that pilots still call and obtain an official FSS pre-flight weather briefing.

© 2007-2016 CheckWX.com
10:23:32 UTC